sensor_id;sensor_type;location;lat;lon;timestamp;P1;durP1;ratioP1;P2;durP2;ratioP2
58152;SDS011;43967;51.634;5.566;2024-01-06T00:03:45;6.63;;;2.53;;
58152;SDS011;43967;51.634;5.566;2024-01-06T00:09:06;6.15;;;2.45;;
58152;SDS011;43967;51.634;5.566;2024-01-06T00:14:27;6.53;;;2.83;;
58152;SDS011;43967;51.634;5.566;2024-01-06T00:19:49;6.50;;;2.60;;
58152;SDS011;43967;51.634;5.566;2024-01-06T00:25:10;6.40;;;2.55;;
58152;SDS011;43967;51.634;5.566;2024-01-06T00:30:31;6.40;;;2.50;;
58152;SDS011;43967;51.634;5.566;2024-01-06T00:35:53;6.37;;;2.50;;
58152;SDS011;43967;51.634;5.566;2024-01-06T00:41:14;6.00;;;2.47;;
58152;SDS011;43967;51.634;5.566;2024-01-06T00:46:35;6.13;;;2.75;;
58152;SDS011;43967;51.634;5.566;2024-01-06T00:51:56;6.63;;;2.60;;
58152;SDS011;43967;51.634;5.566;2024-01-06T00:57:18;6.40;;;2.40;;
58152;SDS011;43967;51.634;5.566;2024-01-06T01:02:39;6.75;;;2.38;;
58152;SDS011;43967;51.634;5.566;2024-01-06T01:08:00;6.00;;;2.10;;
58152;SDS011;43967;51.634;5.566;2024-01-06T01:13:22;6.03;;;2.30;;
58152;SDS011;43967;51.634;5.566;2024-01-06T01:18:43;6.00;;;2.30;;
58152;SDS011;43967;51.634;5.566;2024-01-06T01:24:04;6.25;;;2.45;;
58152;SDS011;43967;51.634;5.566;2024-01-06T01:29:26;6.20;;;2.27;;
58152;SDS011;43967;51.634;5.566;2024-01-06T01:34:47;5.90;;;2.40;;
58152;SDS011;43967;51.634;5.566;2024-01-06T01:40:08;6.30;;;2.50;;
58152;SDS011;43967;51.634;5.566;2024-01-06T01:45:30;7.45;;;2.50;;
58152;SDS011;43967;51.634;5.566;2024-01-06T01:50:51;5.50;;;1.90;;
58152;SDS011;43967;51.634;5.566;2024-01-06T01:56:14;5.88;;;2.17;;
58152;SDS011;43967;51.634;5.566;2024-01-06T02:01:36;6.28;;;2.28;;
58152;SDS011;43967;51.634;5.566;2024-01-06T02:06:57;6.07;;;2.50;;
58152;SDS011;43967;51.634;5.566;2024-01-06T02:12:19;5.65;;;2.03;;
58152;SDS011;43967;51.634;5.566;2024-01-06T02:17:40;5.80;;;1.98;;
58152;SDS011;43967;51.634;5.566;2024-01-06T02:23:03;5.77;;;2.17;;
58152;SDS011;43967;51.634;5.566;2024-01-06T02:28:24;6.20;;;2.50;;
58152;SDS011;43967;51.634;5.566;2024-01-06T02:33:46;5.72;;;2.25;;
58152;SDS011;43967;51.634;5.566;2024-01-06T02:39:08;5.57;;;1.67;;
58152;SDS011;43967;51.634;5.566;2024-01-06T02:44:29;5.30;;;1.80;;
58152;SDS011;43967;51.634;5.566;2024-01-06T02:49:50;5.60;;;2.00;;
58152;SDS011;43967;51.634;5.566;2024-01-06T02:55:13;5.43;;;1.92;;
58152;SDS011;43967;51.634;5.566;2024-01-06T03:00:35;5.20;;;1.70;;
58152;SDS011;43967;51.634;5.566;2024-01-06T03:05:57;5.03;;;1.55;;
58152;SDS011;43967;51.634;5.566;2024-01-06T03:11:18;5.45;;;2.00;;
58152;SDS011;43967;51.634;5.566;2024-01-06T03:16:39;5.40;;;1.83;;
58152;SDS011;43967;51.634;5.566;2024-01-06T03:22:01;5.30;;;1.83;;
58152;SDS011;43967;51.634;5.566;2024-01-06T03:27:22;5.38;;;2.03;;
58152;SDS011;43967;51.634;5.566;2024-01-06T03:32:43;5.25;;;1.80;;
58152;SDS011;43967;51.634;5.566;2024-01-06T03:38:04;4.93;;;1.53;;
58152;SDS011;43967;51.634;5.566;2024-01-06T03:43:26;4.75;;;1.50;;
58152;SDS011;43967;51.634;5.566;2024-01-06T03:48:47;5.20;;;1.52;;
58152;SDS011;43967;51.634;5.566;2024-01-06T03:54:08;4.93;;;1.93;;
58152;SDS011;43967;51.634;5.566;2024-01-06T03:59:29;5.25;;;1.90;;
58152;SDS011;43967;51.634;5.566;2024-01-06T04:04:51;5.43;;;1.50;;
58152;SDS011;43967;51.634;5.566;2024-01-06T04:10:13;5.10;;;1.60;;
58152;SDS011;43967;51.634;5.566;2024-01-06T04:15:34;5.23;;;1.80;;
58152;SDS011;43967;51.634;5.566;2024-01-06T04:20:56;4.80;;;1.63;;
58152;SDS011;43967;51.634;5.566;2024-01-06T04:26:17;4.63;;;1.80;;
58152;SDS011;43967;51.634;5.566;2024-01-06T04:31:39;4.80;;;1.40;;
58152;SDS011;43967;51.634;5.566;2024-01-06T04:37:01;5.47;;;1.90;;
58152;SDS011;43967;51.634;5.566;2024-01-06T04:42:22;5.32;;;1.58;;
58152;SDS011;43967;51.634;5.566;2024-01-06T04:47:43;5.07;;;1.90;;
58152;SDS011;43967;51.634;5.566;2024-01-06T04:53:05;4.95;;;1.48;;
58152;SDS011;43967;51.634;5.566;2024-01-06T04:58:26;5.28;;;1.90;;
58152;SDS011;43967;51.634;5.566;2024-01-06T05:03:47;4.97;;;1.77;;
58152;SDS011;43967;51.634;5.566;2024-01-06T05:09:08;5.40;;;2.13;;
58152;SDS011;43967;51.634;5.566;2024-01-06T05:14:30;5.05;;;1.67;;
58152;SDS011;43967;51.634;5.566;2024-01-06T05:19:51;4.80;;;1.30;;
58152;SDS011;43967;51.634;5.566;2024-01-06T05:25:12;5.10;;;1.60;;
58152;SDS011;43967;51.634;5.566;2024-01-06T05:30:34;5.13;;;1.70;;
58152;SDS011;43967;51.634;5.566;2024-01-06T05:35:55;5.30;;;1.90;;
58152;SDS011;43967;51.634;5.566;2024-01-06T05:41:16;4.90;;;1.60;;
58152;SDS011;43967;51.634;5.566;2024-01-06T05:46:37;4.28;;;1.30;;
58152;SDS011;43967;51.634;5.566;2024-01-06T05:51:59;4.70;;;1.35;;
58152;SDS011;43967;51.634;5.566;2024-01-06T05:57:22;4.87;;;1.53;;
58152;SDS011;43967;51.634;5.566;2024-01-06T06:02:43;4.90;;;1.33;;
58152;SDS011;43967;51.634;5.566;2024-01-06T06:08:04;5.10;;;1.60;;
58152;SDS011;43967;51.634;5.566;2024-01-06T06:13:26;5.47;;;1.85;;
58152;SDS011;43967;51.634;5.566;2024-01-06T06:18:48;4.97;;;1.40;;
58152;SDS011;43967;51.634;5.566;2024-01-06T06:24:11;4.90;;;1.70;;
58152;SDS011;43967;51.634;5.566;2024-01-06T06:29:32;4.50;;;1.27;;
58152;SDS011;43967;51.634;5.566;2024-01-06T06:34:54;4.87;;;1.83;;
58152;SDS011;43967;51.634;5.566;2024-01-06T06:40:15;4.97;;;1.50;;
58152;SDS011;43967;51.634;5.566;2024-01-06T06:45:36;4.68;;;1.63;;
58152;SDS011;43967;51.634;5.566;2024-01-06T06:50:58;5.03;;;1.80;;
58152;SDS011;43967;51.634;5.566;2024-01-06T06:56:19;5.37;;;2.03;;
58152;SDS011;43967;51.634;5.566;2024-01-06T07:01:42;5.47;;;2.10;;
58152;SDS011;43967;51.634;5.566;2024-01-06T07:07:03;5.30;;;1.80;;
58152;SDS011;43967;51.634;5.566;2024-01-06T07:12:24;5.60;;;1.77;;
58152;SDS011;43967;51.634;5.566;2024-01-06T07:17:46;5.60;;;2.10;;
58152;SDS011;43967;51.634;5.566;2024-01-06T07:23:07;5.35;;;1.83;;
58152;SDS011;43967;51.634;5.566;2024-01-06T07:28:28;6.50;;;2.20;;
58152;SDS011;43967;51.634;5.566;2024-01-06T07:33:50;6.00;;;2.10;;
58152;SDS011;43967;51.634;5.566;2024-01-06T07:39:13;5.47;;;1.98;;
58152;SDS011;43967;51.634;5.566;2024-01-06T07:44:34;7.00;;;2.70;;
58152;SDS011;43967;51.634;5.566;2024-01-06T07:49:56;7.80;;;2.47;;
58152;SDS011;43967;51.634;5.566;2024-01-06T07:55:17;6.15;;;2.40;;
58152;SDS011;43967;51.634;5.566;2024-01-06T08:00:39;6.25;;;2.17;;
58152;SDS011;43967;51.634;5.566;2024-01-06T08:06:02;6.50;;;2.00;;
58152;SDS011;43967;51.634;5.566;2024-01-06T08:11:24;6.30;;;2.08;;
58152;SDS011;43967;51.634;5.566;2024-01-06T08:16:45;12.85;;;2.83;;
58152;SDS011;43967;51.634;5.566;2024-01-06T08:22:08;8.87;;;3.40;;
58152;SDS011;43967;51.634;5.566;2024-01-06T08:27:29;6.47;;;1.70;;
58152;SDS011;43967;51.634;5.566;2024-01-06T08:32:50;6.55;;;2.35;;
58152;SDS011;43967;51.634;5.566;2024-01-06T08:38:12;6.73;;;2.40;;
58152;SDS011;43967;51.634;5.566;2024-01-06T08:43:33;6.53;;;2.53;;
58152;SDS011;43967;51.634;5.566;2024-01-06T08:48:54;6.28;;;2.08;;
58152;SDS011;43967;51.634;5.566;2024-01-06T08:54:16;6.55;;;2.30;;
58152;SDS011;43967;51.634;5.566;2024-01-06T08:59:37;5.43;;;1.83;;
58152;SDS011;43967;51.634;5.566;2024-01-06T09:05:00;7.93;;;2.10;;
58152;SDS011;43967;51.634;5.566;2024-01-06T09:10:21;5.75;;;1.52;;
58152;SDS011;43967;51.634;5.566;2024-01-06T09:15:43;6.97;;;2.07;;
58152;SDS011;43967;51.634;5.566;2024-01-06T09:21:04;7.95;;;1.60;;
58152;SDS011;43967;51.634;5.566;2024-01-06T09:26:25;8.27;;;1.90;;
58152;SDS011;43967;51.634;5.566;2024-01-06T09:31:46;8.67;;;1.90;;
58152;SDS011;43967;51.634;5.566;2024-01-06T09:37:08;6.70;;;2.13;;
58152;SDS011;43967;51.634;5.566;2024-01-06T09:42:29;9.00;;;2.40;;
58152;SDS011;43967;51.634;5.566;2024-01-06T09:47:51;8.80;;;2.05;;
58152;SDS011;43967;51.634;5.566;2024-01-06T09:53:12;5.53;;;1.57;;
58152;SDS011;43967;51.634;5.566;2024-01-06T09:58:34;7.90;;;2.03;;
58152;SDS011;43967;51.634;5.566;2024-01-06T10:03:57;8.63;;;1.95;;
58152;SDS011;43967;51.634;5.566;2024-01-06T10:09:25;10.13;;;3.30;;
58152;SDS011;43967;51.634;5.566;2024-01-06T10:14:47;9.05;;;2.75;;
58152;SDS011;43967;51.634;5.566;2024-01-06T10:20:09;7.05;;;2.00;;
58152;SDS011;43967;51.634;5.566;2024-01-06T10:25:32;6.73;;;2.43;;
58152;SDS011;43967;51.634;5.566;2024-01-06T10:30:53;8.13;;;2.43;;
58152;SDS011;43967;51.634;5.566;2024-01-06T10:36:16;9.82;;;2.70;;
58152;SDS011;43967;51.634;5.566;2024-01-06T10:41:38;7.60;;;2.40;;
58152;SDS011;43967;51.634;5.566;2024-01-06T10:47:03;6.07;;;2.03;;
58152;SDS011;43967;51.634;5.566;2024-01-06T10:52:26;8.27;;;2.58;;
58152;SDS011;43967;51.634;5.566;2024-01-06T10:57:48;8.20;;;2.20;;
58152;SDS011;43967;51.634;5.566;2024-01-06T11:03:10;8.07;;;2.40;;
58152;SDS011;43967;51.634;5.566;2024-01-06T11:08:33;8.70;;;2.15;;
58152;SDS011;43967;51.634;5.566;2024-01-06T11:14:17;7.00;;;2.30;;
58152;SDS011;43967;51.634;5.566;2024-01-06T11:25:04;9.80;;;2.07;;
58152;SDS011;43967;51.634;5.566;2024-01-06T11:30:27;8.02;;;2.25;;
58152;SDS011;43967;51.634;5.566;2024-01-06T11:35:50;7.65;;;2.20;;
58152;SDS011;43967;51.634;5.566;2024-01-06T11:41:14;8.33;;;2.27;;
58152;SDS011;43967;51.634;5.566;2024-01-06T11:47:10;9.77;;;2.30;;
58152;SDS011;43967;51.634;5.566;2024-01-06T11:52:32;8.27;;;2.10;;
58152;SDS011;43967;51.634;5.566;2024-01-06T11:57:55;8.17;;;2.43;;
58152;SDS011;43967;51.634;5.566;2024-01-06T12:03:16;10.60;;;2.10;;
58152;SDS011;43967;51.634;5.566;2024-01-06T12:08:38;8.85;;;3.15;;
58152;SDS011;43967;51.634;5.566;2024-01-06T12:13:59;7.20;;;2.40;;
58152;SDS011;43967;51.634;5.566;2024-01-06T12:19:20;7.00;;;2.13;;
58152;SDS011;43967;51.634;5.566;2024-01-06T12:24:42;6.95;;;2.55;;
58152;SDS011;43967;51.634;5.566;2024-01-06T12:30:03;6.95;;;2.58;;
58152;SDS011;43967;51.634;5.566;2024-01-06T12:35:25;10.10;;;2.50;;
58152;SDS011;43967;51.634;5.566;2024-01-06T12:40:46;7.97;;;2.20;;
58152;SDS011;43967;51.634;5.566;2024-01-06T12:46:07;8.70;;;2.53;;
58152;SDS011;43967;51.634;5.566;2024-01-06T12:51:28;9.23;;;2.63;;
58152;SDS011;43967;51.634;5.566;2024-01-06T12:56:50;8.95;;;2.47;;
58152;SDS011;43967;51.634;5.566;2024-01-06T13:02:11;7.63;;;2.50;;
58152;SDS011;43967;51.634;5.566;2024-01-06T13:07:32;7.23;;;2.30;;
58152;SDS011;43967;51.634;5.566;2024-01-06T13:12:54;8.23;;;2.23;;
58152;SDS011;43967;51.634;5.566;2024-01-06T13:18:15;8.93;;;2.42;;
58152;SDS011;43967;51.634;5.566;2024-01-06T13:23:36;9.75;;;2.30;;
58152;SDS011;43967;51.634;5.566;2024-01-06T13:28:57;7.87;;;2.10;;
58152;SDS011;43967;51.634;5.566;2024-01-06T13:34:19;6.57;;;2.42;;
58152;SDS011;43967;51.634;5.566;2024-01-06T13:39:40;6.80;;;2.20;;
58152;SDS011;43967;51.634;5.566;2024-01-06T13:45:01;6.50;;;2.43;;
58152;SDS011;43967;51.634;5.566;2024-01-06T13:50:22;7.10;;;2.05;;
58152;SDS011;43967;51.634;5.566;2024-01-06T13:55:44;7.00;;;2.38;;
58152;SDS011;43967;51.634;5.566;2024-01-06T14:01:05;6.40;;;2.37;;
58152;SDS011;43967;51.634;5.566;2024-01-06T14:06:26;7.77;;;2.20;;
58152;SDS011;43967;51.634;5.566;2024-01-06T14:11:48;6.05;;;2.13;;
58152;SDS011;43967;51.634;5.566;2024-01-06T14:17:11;8.38;;;2.50;;
58152;SDS011;43967;51.634;5.566;2024-01-06T14:22:33;6.27;;;2.00;;
58152;SDS011;43967;51.634;5.566;2024-01-06T14:27:54;8.38;;;2.65;;
58152;SDS011;43967;51.634;5.566;2024-01-06T14:33:15;8.52;;;2.63;;
58152;SDS011;43967;51.634;5.566;2024-01-06T14:38:37;7.37;;;2.50;;
58152;SDS011;43967;51.634;5.566;2024-01-06T14:43:58;8.60;;;2.50;;
58152;SDS011;43967;51.634;5.566;2024-01-06T14:49:20;6.38;;;2.33;;
58152;SDS011;43967;51.634;5.566;2024-01-06T14:54:41;6.67;;;2.17;;
58152;SDS011;43967;51.634;5.566;2024-01-06T15:00:02;7.60;;;2.70;;
58152;SDS011;43967;51.634;5.566;2024-01-06T15:05:25;7.57;;;2.90;;
58152;SDS011;43967;51.634;5.566;2024-01-06T15:10:46;7.80;;;2.72;;
58152;SDS011;43967;51.634;5.566;2024-01-06T15:16:07;7.57;;;2.73;;
58152;SDS011;43967;51.634;5.566;2024-01-06T15:21:28;8.40;;;2.05;;
58152;SDS011;43967;51.634;5.566;2024-01-06T15:26:50;8.25;;;2.70;;
58152;SDS011;43967;51.634;5.566;2024-01-06T15:32:13;6.83;;;2.50;;
58152;SDS011;43967;51.634;5.566;2024-01-06T15:37:34;8.25;;;2.65;;
58152;SDS011;43967;51.634;5.566;2024-01-06T15:42:56;9.68;;;3.28;;
58152;SDS011;43967;51.634;5.566;2024-01-06T15:48:17;8.67;;;2.90;;
58152;SDS011;43967;51.634;5.566;2024-01-06T15:53:38;8.43;;;3.70;;
58152;SDS011;43967;51.634;5.566;2024-01-06T15:59:00;7.97;;;2.83;;
58152;SDS011;43967;51.634;5.566;2024-01-06T16:04:21;9.10;;;2.92;;
58152;SDS011;43967;51.634;5.566;2024-01-06T16:09:42;8.00;;;2.70;;
58152;SDS011;43967;51.634;5.566;2024-01-06T16:15:04;7.82;;;3.05;;
58152;SDS011;43967;51.634;5.566;2024-01-06T16:20:26;7.22;;;2.72;;
58152;SDS011;43967;51.634;5.566;2024-01-06T16:25:47;8.77;;;3.03;;
58152;SDS011;43967;51.634;5.566;2024-01-06T16:31:09;8.68;;;3.35;;
58152;SDS011;43967;51.634;5.566;2024-01-06T16:36:30;9.30;;;3.03;;
58152;SDS011;43967;51.634;5.566;2024-01-06T16:41:51;6.90;;;3.20;;
58152;SDS011;43967;51.634;5.566;2024-01-06T16:47:14;8.20;;;3.20;;
58152;SDS011;43967;51.634;5.566;2024-01-06T16:52:35;8.18;;;3.40;;
58152;SDS011;43967;51.634;5.566;2024-01-06T16:57:58;7.55;;;3.10;;
58152;SDS011;43967;51.634;5.566;2024-01-06T17:03:19;7.50;;;3.80;;
58152;SDS011;43967;51.634;5.566;2024-01-06T17:08:40;8.25;;;3.55;;
58152;SDS011;43967;51.634;5.566;2024-01-06T17:14:01;9.07;;;3.60;;
58152;SDS011;43967;51.634;5.566;2024-01-06T17:19:23;7.33;;;3.40;;
58152;SDS011;43967;51.634;5.566;2024-01-06T17:24:44;7.95;;;3.25;;
58152;SDS011;43967;51.634;5.566;2024-01-06T17:30:05;7.55;;;3.88;;
58152;SDS011;43967;51.634;5.566;2024-01-06T17:35:27;7.80;;;3.90;;
58152;SDS011;43967;51.634;5.566;2024-01-06T17:40:48;7.77;;;3.90;;
58152;SDS011;43967;51.634;5.566;2024-01-06T17:46:10;7.68;;;3.63;;
58152;SDS011;43967;51.634;5.566;2024-01-06T17:51:31;7.88;;;4.00;;
58152;SDS011;43967;51.634;5.566;2024-01-06T17:56:53;8.33;;;4.50;;
58152;SDS011;43967;51.634;5.566;2024-01-06T18:02:14;7.90;;;4.22;;
58152;SDS011;43967;51.634;5.566;2024-01-06T18:07:35;9.10;;;4.10;;
58152;SDS011;43967;51.634;5.566;2024-01-06T18:12:57;8.23;;;4.40;;
58152;SDS011;43967;51.634;5.566;2024-01-06T18:18:18;8.38;;;4.30;;
58152;SDS011;43967;51.634;5.566;2024-01-06T18:23:39;8.30;;;4.70;;
58152;SDS011;43967;51.634;5.566;2024-01-06T18:29:01;8.67;;;5.03;;
58152;SDS011;43967;51.634;5.566;2024-01-06T18:34:22;8.73;;;4.77;;
58152;SDS011;43967;51.634;5.566;2024-01-06T18:39:44;8.93;;;5.35;;
58152;SDS011;43967;51.634;5.566;2024-01-06T18:45:05;9.80;;;5.45;;
58152;SDS011;43967;51.634;5.566;2024-01-06T18:50:27;9.30;;;5.67;;
58152;SDS011;43967;51.634;5.566;2024-01-06T18:55:48;9.35;;;5.85;;
58152;SDS011;43967;51.634;5.566;2024-01-06T19:01:11;9.32;;;6.05;;
58152;SDS011;43967;51.634;5.566;2024-01-06T19:06:33;9.93;;;6.60;;
58152;SDS011;43967;51.634;5.566;2024-01-06T19:11:54;9.32;;;5.90;;
58152;SDS011;43967;51.634;5.566;2024-01-06T19:17:16;10.77;;;6.50;;
58152;SDS011;43967;51.634;5.566;2024-01-06T19:22:37;10.40;;;7.33;;
58152;SDS011;43967;51.634;5.566;2024-01-06T19:27:59;9.73;;;6.60;;
58152;SDS011;43967;51.634;5.566;2024-01-06T19:33:20;10.32;;;7.03;;
58152;SDS011;43967;51.634;5.566;2024-01-06T19:38:42;9.80;;;7.20;;
58152;SDS011;43967;51.634;5.566;2024-01-06T19:44:03;10.10;;;7.00;;
58152;SDS011;43967;51.634;5.566;2024-01-06T19:49:24;9.68;;;6.40;;
58152;SDS011;43967;51.634;5.566;2024-01-06T19:54:45;11.38;;;6.68;;
58152;SDS011;43967;51.634;5.566;2024-01-06T20:00:07;11.10;;;6.63;;
58152;SDS011;43967;51.634;5.566;2024-01-06T20:05:28;10.73;;;6.40;;
58152;SDS011;43967;51.634;5.566;2024-01-06T20:10:50;10.30;;;6.57;;
58152;SDS011;43967;51.634;5.566;2024-01-06T20:16:11;12.83;;;6.47;;
58152;SDS011;43967;51.634;5.566;2024-01-06T20:21:32;12.07;;;5.80;;
58152;SDS011;43967;51.634;5.566;2024-01-06T20:26:53;10.50;;;5.93;;
58152;SDS011;43967;51.634;5.566;2024-01-06T20:32:15;10.35;;;6.47;;
58152;SDS011;43967;51.634;5.566;2024-01-06T20:37:36;10.17;;;6.30;;
58152;SDS011;43967;51.634;5.566;2024-01-06T20:42:57;9.38;;;6.18;;
58152;SDS011;43967;51.634;5.566;2024-01-06T20:48:19;10.43;;;6.15;;
58152;SDS011;43967;51.634;5.566;2024-01-06T20:53:40;11.80;;;5.60;;
58152;SDS011;43967;51.634;5.566;2024-01-06T20:59:02;8.88;;;5.40;;
58152;SDS011;43967;51.634;5.566;2024-01-06T21:04:23;11.23;;;5.80;;
58152;SDS011;43967;51.634;5.566;2024-01-06T21:09:44;9.70;;;5.83;;
58152;SDS011;43967;51.634;5.566;2024-01-06T21:15:05;11.67;;;6.30;;
58152;SDS011;43967;51.634;5.566;2024-01-06T21:20:27;12.10;;;5.68;;
58152;SDS011;43967;51.634;5.566;2024-01-06T21:25:49;11.23;;;6.10;;
58152;SDS011;43967;51.634;5.566;2024-01-06T21:31:11;9.87;;;6.07;;
58152;SDS011;43967;51.634;5.566;2024-01-06T21:36:32;11.25;;;6.07;;
58152;SDS011;43967;51.634;5.566;2024-01-06T21:41:53;11.77;;;6.10;;
58152;SDS011;43967;51.634;5.566;2024-01-06T21:47:14;10.97;;;5.77;;
58152;SDS011;43967;51.634;5.566;2024-01-06T21:52:36;14.75;;;5.60;;
58152;SDS011;43967;51.634;5.566;2024-01-06T21:57:57;10.68;;;5.53;;
58152;SDS011;43967;51.634;5.566;2024-01-06T22:03:19;10.03;;;5.17;;
58152;SDS011;43967;51.634;5.566;2024-01-06T22:08:40;9.87;;;5.20;;
58152;SDS011;43967;51.634;5.566;2024-01-06T22:14:01;15.02;;;4.75;;
58152;SDS011;43967;51.634;5.566;2024-01-06T22:19:22;8.77;;;4.85;;
58152;SDS011;43967;51.634;5.566;2024-01-06T22:24:44;10.13;;;4.70;;
58152;SDS011;43967;51.634;5.566;2024-01-06T22:30:05;10.05;;;4.97;;
58152;SDS011;43967;51.634;5.566;2024-01-06T22:35:27;8.80;;;4.38;;
58152;SDS011;43967;51.634;5.566;2024-01-06T22:40:49;10.80;;;5.00;;
58152;SDS011;43967;51.634;5.566;2024-01-06T22:46:10;10.77;;;4.85;;
58152;SDS011;43967;51.634;5.566;2024-01-06T22:51:31;11.30;;;4.63;;
58152;SDS011;43967;51.634;5.566;2024-01-06T22:56:52;10.33;;;4.90;;
58152;SDS011;43967;51.634;5.566;2024-01-06T23:02:15;10.57;;;4.80;;
58152;SDS011;43967;51.634;5.566;2024-01-06T23:07:36;12.00;;;5.07;;
58152;SDS011;43967;51.634;5.566;2024-01-06T23:12:58;9.48;;;4.50;;
58152;SDS011;43967;51.634;5.566;2024-01-06T23:18:19;9.97;;;4.73;;
58152;SDS011;43967;51.634;5.566;2024-01-06T23:23:40;9.23;;;4.38;;
58152;SDS011;43967;51.634;5.566;2024-01-06T23:29:01;9.80;;;4.97;;
58152;SDS011;43967;51.634;5.566;2024-01-06T23:34:23;9.27;;;4.70;;
58152;SDS011;43967;51.634;5.566;2024-01-06T23:39:44;9.82;;;4.50;;
58152;SDS011;43967;51.634;5.566;2024-01-06T23:45:05;9.55;;;4.65;;
58152;SDS011;43967;51.634;5.566;2024-01-06T23:50:26;9.53;;;4.43;;
58152;SDS011;43967;51.634;5.566;2024-01-06T23:55:50;9.87;;;4.60;;
